Time;durP1;ratioP1;P1;durP2;ratioP2;P2;SDS_P1;SDS_P2;PMS_P1;PMS_P2;Temp;Humidity;BMP_temperature;BMP_pressure;BME280_temperature;BME280_humidity;BME280_pressure;Samples;Min_cycle;Max_cycle;Signal;HPM_P1;HPM_P2
2021/06/10 00:01:37;;;;;;;;;10.75;10.75;;;;;24.67;46.49;101434.94;4875474;29;45852;-83
2021/06/10 00:04:03;;;;;;;;;11.00;11.00;;;;;24.64;46.37;101443.34;4876939;29;45783;-82
2021/06/10 00:06:28;;;;;;;;;12.50;12.00;;;;;24.60;47.99;101447.41;4876921;29;46388;-83
2021/06/10 00:08:54;;;;;;;;;11.75;11.00;;;;;24.51;48.06;101436.91;4878221;29;45740;-84
2021/06/10 00:11:19;;;;;;;;;14.00;13.75;;;;;24.23;47.62;101408.03;4878023;29;46246;-84
2021/06/10 00:13:45;;;;;;;;;12.25;12.25;;;;;24.31;47.26;101417.00;4877684;29;45964;-84
2021/06/10 00:16:10;;;;;;;;;15.25;13.00;;;;;24.41;48.08;101441.69;4862272;29;47923;-83
2021/06/10 00:18:36;;;;;;;;;13.00;12.50;;;;;24.41;48.19;101452.41;4883694;29;46445;-85
2021/06/10 00:21:01;;;;;;;;;13.25;13.25;;;;;24.30;48.83;101429.53;4883665;29;45848;-84
2021/06/10 00:23:27;;;;;;;;;13.00;11.75;;;;;24.31;48.54;101449.97;4879339;29;45725;-84
2021/06/10 00:25:52;;;;;;;;;14.00;13.75;;;;;24.26;49.54;101457.72;4880508;29;46132;-82
2021/06/10 00:28:18;;;;;;;;;13.75;12.00;;;;;24.18;48.98;101439.84;4879130;29;46154;-83
2021/06/10 00:30:43;;;;;;;;;13.00;12.00;;;;;24.09;49.86;101445.38;4878086;29;45561;-84
2021/06/10 00:33:10;;;;;;;;;13.25;12.00;;;;;24.07;50.17;101442.06;4870211;29;46149;-83
2021/06/10 00:35:35;;;;;;;;;13.00;12.50;;;;;24.04;50.09;101448.59;4877458;29;46559;-84
2021/06/10 00:38:01;;;;;;;;;13.75;13.00;;;;;23.94;50.31;101442.63;4877655;29;45933;-85
2021/06/10 00:40:30;;;;;;;;;12.00;11.25;;;;;23.89;50.63;101450.38;4878508;29;45630;-85
2021/06/10 00:42:58;;;;;;;;;14.75;12.75;;;;;23.76;50.92;101431.34;4877807;29;45937;-85
2021/06/10 00:45:25;;;;;;;;;11.25;10.75;;;;;23.78;52.02;101451.59;4881661;29;46328;-84
2021/06/10 00:47:51;;;;;;;;;14.00;13.00;;;;;23.67;52.30;101453.81;4883201;29;46489;-83
2021/06/10 00:50:39;;;;;;;;;13.75;12.50;;;;;23.40;51.77;101426.44;4881817;29;45805;-83
2021/06/10 00:53:05;;;;;;;;;13.00;13.00;;;;;23.39;52.31;101430.13;4882153;29;46110;-85
2021/06/10 00:55:31;;;;;;;;;13.50;13.00;;;;;23.40;52.59;101444.34;4879555;29;45769;-83
2021/06/10 00:57:57;;;;;;;;;13.00;13.00;;;;;23.33;52.21;101451.38;4878552;29;46021;-82
2021/06/10 01:00:23;;;;;;;;;12.50;12.50;;;;;23.27;52.79;101450.22;4876351;29;45696;-84
2021/06/10 01:02:49;;;;;;;;;13.25;13.00;;;;;23.21;52.42;101442.88;4877370;29;46027;-85
2021/06/10 01:05:15;;;;;;;;;11.00;10.50;;;;;23.15;52.63;101446.25;4878029;29;45558;-84
2021/06/10 01:08:23;;;;;;;;;14.50;14.50;;;;;23.17;52.84;101438.88;4869158;29;45937;-83
2021/06/10 01:11:07;;;;;;;;;13.50;12.75;;;;;23.16;52.78;101442.53;4861060;29;46073;-82
2021/06/10 01:13:49;;;;;;;;;14.50;12.00;;;;;23.17;52.93;101435.38;4876740;29;45986;-81
2021/06/10 01:16:20;;;;;;;;;13.75;13.50;;;;;23.12;52.30;101440.38;4859951;29;47115;-83
2021/06/10 01:18:47;;;;;;;;;12.75;12.00;;;;;23.13;52.80;101434.03;4877567;29;46255;-84
2021/06/10 01:21:15;;;;;;;;;13.75;13.00;;;;;23.13;52.49;101431.38;4857477;29;45808;-84
2021/06/10 01:24:07;;;;;;;;;13.50;13.00;;;;;23.13;52.83;101432.22;4876390;29;45581;-83
2021/06/10 01:27:03;;;;;;;;;12.00;11.75;;;;;23.12;51.95;101435.88;4863983;29;46577;-82
2021/06/10 01:29:29;;;;;;;;;13.00;12.00;;;;;23.11;52.81;101426.19;4880720;29;45903;-83
2021/06/10 01:31:55;;;;;;;;;12.50;12.50;;;;;23.10;52.88;101429.88;4876802;29;45774;-83
2021/06/10 01:34:22;;;;;;;;;12.50;12.50;;;;;23.09;53.03;101422.88;4879023;29;46031;-84
2021/06/10 01:36:48;;;;;;;;;11.50;11.00;;;;;23.08;53.19;101431.88;4881209;29;45851;-83
2021/06/10 01:39:19;;;;;;;;;13.50;13.50;;;;;22.88;52.44;101395.84;4881023;29;46117;-84
2021/06/10 01:41:44;;;;;;;;;11.00;10.50;;;;;23.05;52.75;101418.03;4874964;29;45601;-83
2021/06/10 01:44:11;;;;;;;;;13.50;12.00;;;;;23.03;52.75;101420.88;4879117;29;46259;-82
2021/06/10 01:46:40;;;;;;;;;14.00;12.00;;;;;22.91;53.75;101404.34;4879430;29;45884;-83
2021/06/10 01:49:07;;;;;;;;;13.50;13.00;;;;;22.63;53.02;101360.25;4861746;29;47780;-84
2021/06/10 01:51:33;;;;;;;;;12.00;11.25;;;;;22.96;53.02;101411.84;4877236;29;46201;-81
2021/06/10 01:54:03;;;;;;;;;13.75;11.50;;;;;22.68;52.48;101367.75;4878390;29;45572;-84
2021/06/10 01:56:29;;;;;;;;;10.50;10.50;;;;;22.78;53.04;101381.84;4877975;29;46123;-83
2021/06/10 01:58:55;;;;;;;;;11.50;11.00;;;;;22.90;53.04;101396.50;4878250;29;46084;-82
2021/06/10 02:01:26;;;;;;;;;12.75;12.50;;;;;22.90;52.97;101399.16;4883358;29;45742;-82
2021/06/10 02:03:53;;;;;;;;;14.75;12.00;;;;;22.97;53.12;101406.34;4879341;29;46977;-83
2021/06/10 02:06:20;;;;;;;;;14.00;11.50;;;;;23.00;52.83;101411.34;4878564;29;45767;-83
2021/06/10 02:08:49;;;;;;;;;14.50;14.25;;;;;23.01;52.88;101414.84;4878467;29;45986;-83
2021/06/10 02:11:16;;;;;;;;;13.25;13.25;;;;;23.01;52.66;101417.53;4878914;29;45827;-83
2021/06/10 02:13:44;;;;;;;;;15.00;14.50;;;;;22.94;53.00;101404.00;4877841;29;46144;-82
2021/06/10 02:16:11;;;;;;;;;15.25;14.00;;;;;23.01;53.28;101418.34;4877663;29;45840;-82
2021/06/10 02:18:41;;;;;;;;;13.75;13.00;;;;;22.94;53.42;101409.34;4878500;29;46555;-81
2021/06/10 02:21:09;;;;;;;;;11.50;10.25;;;;;22.86;53.37;101393.34;4878555;29;45633;-82
2021/06/10 02:23:37;;;;;;;;;14.00;13.75;;;;;22.99;53.35;101420.38;4874962;29;45905;-81
2021/06/10 02:26:03;;;;;;;;;13.00;12.25;;;;;22.87;53.17;101394.16;4874560;29;46732;-82
2021/06/10 02:28:29;;;;;;;;;11.75;11.50;;;;;22.95;53.08;101424.38;4878480;29;46017;-81
2021/06/10 02:30:54;;;;;;;;;11.75;11.00;;;;;22.94;52.56;101416.56;4877800;29;45745;-82
2021/06/10 02:33:20;;;;;;;;;12.00;10.50;;;;;22.88;52.80;101411.88;4878147;29;45624;-82
2021/06/10 02:35:47;;;;;;;;;12.00;11.00;;;;;22.81;52.30;101408.19;4878822;29;46506;-82
2021/06/10 02:38:15;;;;;;;;;10.75;10.50;;;;;22.80;52.57;101411.88;4878385;29;46351;-83
2021/06/10 02:40:48;;;;;;;;;10.75;10.50;;;;;22.84;52.39;101419.38;4864696;29;46008;-81
2021/06/10 02:43:13;;;;;;;;;11.50;11.50;;;;;22.82;52.39;101410.72;4878587;29;45675;-83
2021/06/10 02:45:42;;;;;;;;;12.00;12.00;;;;;22.56;51.99;101380.66;4860890;29;46713;-82
2021/06/10 02:48:10;;;;;;;;;13.00;13.00;;;;;22.72;52.36;101404.72;4879374;29;45952;-83
2021/06/10 02:50:39;;;;;;;;;14.00;10.75;;;;;22.67;52.37;101406.19;4883500;29;45853;-84
2021/06/10 02:53:07;;;;;;;;;11.25;11.25;;;;;22.47;52.59;101377.13;4883343;29;45873;-81
2021/06/10 02:55:36;;;;;;;;;11.75;11.50;;;;;22.58;52.49;101411.53;4883550;29;45741;-82
2021/06/10 02:58:03;;;;;;;;;12.50;11.50;;;;;22.26;52.20;101374.13;4883983;29;45993;-84
2021/06/10 03:00:32;;;;;;;;;12.75;12.25;;;;;22.43;52.03;101413.19;4882621;29;45679;-82
2021/06/10 03:03:00;;;;;;;;;11.50;11.50;;;;;22.08;52.70;101366.25;4861637;29;46807;-82
2021/06/10 03:05:26;;;;;;;;;11.00;11.00;;;;;22.31;52.64;101406.50;4878550;29;45725;-81
2021/06/10 03:07:53;;;;;;;;;11.50;11.25;;;;;22.26;52.42;101410.66;4861766;29;46064;-82
2021/06/10 03:10:25;;;;;;;;;9.25;9.25;;;;;21.99;52.54;101369.09;4878520;29;46387;-81
2021/06/10 03:12:51;;;;;;;;;10.00;9.25;;;;;22.03;52.25;101375.75;4845998;29;45831;-82
2021/06/10 03:15:17;;;;;;;;;12.00;12.00;;;;;22.14;52.22;101404.81;4877382;29;46661;-82
2021/06/10 03:17:44;;;;;;;;;10.75;10.00;;;;;22.08;52.48;101398.28;4872302;29;46123;-83
2021/06/10 03:20:10;;;;;;;;;15.25;14.25;;;;;21.85;52.52;101364.38;4878624;29;45816;-80
2021/06/10 03:22:36;;;;;;;;;11.00;10.75;;;;;22.03;52.72;101399.78;4877794;29;46053;-82
2021/06/10 03:25:05;;;;;;;;;12.00;11.25;;;;;22.00;52.76;101408.97;4877210;29;46687;-81
2021/06/10 03:27:32;;;;;;;;;13.00;12.50;;;;;21.87;52.51;101389.03;4878349;29;46588;-83
2021/06/10 03:29:58;;;;;;;;;12.00;11.00;;;;;21.93;52.57;101399.91;4877404;29;46146;-82
2021/06/10 03:32:26;;;;;;;;;11.25;11.25;;;;;21.65;52.96;101361.97;4877523;29;46124;-82
2021/06/10 03:34:54;;;;;;;;;12.25;10.25;;;;;21.59;52.67;101361.81;4877019;29;45946;-82
2021/06/10 03:37:20;;;;;;;;;12.25;11.25;;;;;21.77;52.87;101399.84;4877466;29;46028;-82
2021/06/10 03:39:46;;;;;;;;;11.75;10.50;;;;;21.74;52.94;101392.19;4877256;29;46310;-83
2021/06/10 03:42:12;;;;;;;;;12.50;11.00;;;;;21.46;52.87;101350.75;4859068;29;45740;-82
2021/06/10 03:44:38;;;;;;;;;13.75;13.00;;;;;21.54;52.88;101378.25;4876869;29;45806;-80
2021/06/10 03:47:07;;;;;;;;;13.75;13.50;;;;;21.70;53.01;101397.00;4857680;29;47610;-81
2021/06/10 03:49:32;;;;;;;;;14.50;14.00;;;;;21.71;53.28;101392.50;4877338;29;46395;-82
2021/06/10 03:51:58;;;;;;;;;13.25;11.75;;;;;21.69;53.05;101387.34;4876083;29;45625;-82
2021/06/10 03:54:24;;;;;;;;;14.25;14.25;;;;;21.61;53.28;101381.13;4876323;29;47181;-82
2021/06/10 03:56:49;;;;;;;;;13.75;13.75;;;;;21.56;53.19;101364.78;4860015;29;45991;-81
2021/06/10 03:59:15;;;;;;;;;12.25;12.25;;;;;21.53;53.25;101363.28;4868047;29;45936;-80
2021/06/10 04:01:41;;;;;;;;;12.50;12.50;;;;;21.48;53.37;101354.94;4877138;29;45828;-82
2021/06/10 04:04:08;;;;;;;;;12.25;11.00;;;;;21.51;53.50;101364.44;4841402;29;47421;-82
2021/06/10 04:06:35;;;;;;;;;10.00;9.75;;;;;21.62;52.94;101377.47;4868903;29;46113;-82
2021/06/10 04:09:08;;;;;;;;;11.50;9.75;;;;;21.40;52.67;101354.91;4877552;29;46336;-82
2021/06/10 04:11:34;;;;;;;;;10.25;9.25;;;;;21.61;52.86;101376.63;4876221;29;45792;-82
2021/06/10 04:14:00;;;;;;;;;10.00;9.25;;;;;21.53;52.55;101367.78;4877067;29;46661;-83
2021/06/10 04:16:26;;;;;;;;;9.75;9.75;;;;;21.58;52.50;101379.63;4876896;29;45964;-82
2021/06/10 04:18:53;;;;;;;;;8.75;8.75;;;;;21.54;52.73;101378.25;4857855;29;45957;-81
2021/06/10 04:21:20;;;;;;;;;12.25;11.00;;;;;21.61;52.01;101391.81;4876183;29;45676;-80
2021/06/10 04:23:46;;;;;;;;;7.75;7.25;;;;;21.54;52.25;101386.28;4859718;29;45588;-81
2021/06/10 04:26:12;;;;;;;;;11.00;9.00;;;;;21.62;52.12;101396.97;4875477;29;45900;-83
2021/06/10 04:28:38;;;;;;;;;8.50;8.50;;;;;21.59;52.04;101393.81;4876502;29;45717;-82
2021/06/10 04:31:03;;;;;;;;;7.50;7.50;;;;;21.46;51.79;101375.59;4874506;29;45751;-81
2021/06/10 04:33:29;;;;;;;;;9.25;7.25;;;;;21.56;51.71;101394.97;4874545;29;47410;-82
2021/06/10 04:35:54;;;;;;;;;7.75;7.25;;;;;21.52;51.60;101392.78;4875821;29;45772;-83
2021/06/10 04:38:20;;;;;;;;;6.75;6.50;;;;;21.46;51.27;101386.25;4876280;29;45692;-83
2021/06/10 04:40:46;;;;;;;;;6.75;6.75;;;;;21.54;51.18;101402.28;4859797;29;46135;-83
2021/06/10 04:43:11;;;;;;;;;8.00;6.75;;;;;21.54;50.76;101404.94;4859691;29;47482;-82
2021/06/10 04:45:37;;;;;;;;;6.25;6.00;;;;;21.46;50.91;101393.41;4876199;29;46705;-84
2021/06/10 04:48:03;;;;;;;;;6.25;5.25;;;;;21.50;50.70;101400.09;4877625;29;45725;-84
2021/06/10 04:50:29;;;;;;;;;6.00;6.00;;;;;21.55;50.53;101403.09;4864918;29;46027;-83
2021/06/10 04:52:55;;;;;;;;;5.50;5.25;;;;;21.56;50.15;101410.97;4877465;29;45873;-84
2021/06/10 04:55:21;;;;;;;;;6.00;4.75;;;;;21.54;50.03;101409.47;4871958;29;46224;-84
2021/06/10 04:57:47;;;;;;;;;7.00;6.00;;;;;21.47;49.90;101400.44;4860339;29;45783;-82
2021/06/10 05:00:13;;;;;;;;;6.25;6.25;;;;;21.55;49.47;101417.28;4878921;29;45764;-83
2021/06/10 05:02:39;;;;;;;;;6.50;6.00;;;;;21.33;49.62;101384.03;4880346;29;46963;-82
2021/06/10 05:05:06;;;;;;;;;6.25;5.00;;;;;21.50;49.55;101410.75;4881258;29;46173;-82
2021/06/10 05:07:31;;;;;;;;;5.00;5.00;;;;;21.32;49.33;101398.34;4880457;29;45731;-83
2021/06/10 05:09:57;;;;;;;;;6.50;6.50;;;;;21.30;49.15;101391.50;4882358;29;45829;-81
2021/06/10 05:12:23;;;;;;;;;6.00;5.50;;;;;21.23;48.75;101385.13;4862397;29;47230;-82
2021/06/10 05:14:50;;;;;;;;;6.50;6.00;;;;;21.22;49.01;101386.97;4859741;29;48381;-83
2021/06/10 05:17:15;;;;;;;;;5.75;5.75;;;;;21.29;48.64;101392.50;4877144;29;45560;-83
2021/06/10 05:19:40;;;;;;;;;7.00;7.00;;;;;21.39;48.74;101403.88;4875701;29;46193;-81
2021/06/10 05:22:06;;;;;;;;;6.00;6.00;;;;;21.42;49.13;101408.91;4858207;29;48492;-82
2021/06/10 05:24:32;;;;;;;;;6.00;6.00;;;;;21.37;49.16;101397.06;4875703;29;46221;-82
2021/06/10 05:26:57;;;;;;;;;7.00;6.75;;;;;21.44;48.83;101404.22;4858221;29;45790;-83
2021/06/10 05:29:22;;;;;;;;;6.00;6.00;;;;;21.46;48.65;101402.25;4876346;29;46195;-83
2021/06/10 05:31:48;;;;;;;;;5.00;4.00;;;;;21.48;48.16;101402.09;4874952;29;46355;-83
2021/06/10 05:34:14;;;;;;;;;4.50;4.00;;;;;21.47;47.93;101409.25;4877078;29;47206;-82
2021/06/10 05:36:40;;;;;;;;;3.00;3.00;;;;;21.44;47.14;101404.22;4875980;29;46026;-83
2021/06/10 05:39:05;;;;;;;;;3.00;3.00;;;;;21.46;46.78;101412.06;4876902;29;46054;-82
2021/06/10 05:41:32;;;;;;;;;2.00;2.00;;;;;21.43;46.43;101404.41;4874842;29;45967;-81
2021/06/10 05:43:58;;;;;;;;;3.00;3.00;;;;;21.40;46.09;101402.88;4859359;29;46151;-81
2021/06/10 05:46:24;;;;;;;;;3.25;3.25;;;;;21.42;45.75;101403.56;4876492;29;45811;-83
2021/06/10 05:48:50;;;;;;;;;2.25;2.25;;;;;21.46;45.64;101407.59;4859890;29;46016;-83
2021/06/10 05:51:15;;;;;;;;;3.00;2.50;;;;;21.38;45.00;101404.88;4875050;29;46445;-82
2021/06/10 05:53:41;;;;;;;;;3.25;2.75;;;;;21.31;44.95;101399.34;4875759;29;45684;-82
2021/06/10 05:56:06;;;;;;;;;5.00;4.00;;;;;21.47;44.88;101425.25;4876230;29;45935;-84
2021/06/10 05:58:32;;;;;;;;;3.25;3.00;;;;;21.46;44.35;101422.75;4875538;29;45780;-82
2021/06/10 06:00:58;;;;;;;;;2.00;2.00;;;;;21.46;44.17;101412.91;4875153;29;45902;-82
2021/06/10 06:03:26;;;;;;;;;2.25;2.00;;;;;21.43;44.22;101412.41;4876456;29;45833;-80
2021/06/10 06:05:52;;;;;;;;;3.25;3.00;;;;;21.40;44.07;101408.22;4879735;29;45766;-83
2021/06/10 06:08:17;;;;;;;;;3.75;3.25;;;;;21.34;43.66;101399.03;4877787;29;45829;-81
2021/06/10 06:10:46;;;;;;;;;5.00;4.00;;;;;21.50;43.84;101424.09;4877791;29;46018;-81
2021/06/10 06:13:11;;;;;;;;;3.00;3.00;;;;;21.50;43.82;101426.75;4872095;29;46114;-83
2021/06/10 06:15:37;;;;;;;;;4.25;3.50;;;;;21.38;43.59;101399.53;4874451;29;45566;-82
2021/06/10 06:18:02;;;;;;;;;3.75;3.00;;;;;21.52;43.28;101430.13;4878239;29;46047;-83
2021/06/10 06:20:28;;;;;;;;;4.25;3.25;;;;;21.47;43.45;101413.75;4878892;29;45682;-85
2021/06/10 06:22:53;;;;;;;;;3.25;3.00;;;;;21.56;43.49;101426.97;4865498;29;46099;-84
2021/06/10 06:25:20;;;;;;;;;2.25;2.25;;;;;21.66;42.97;101432.16;4878594;29;45783;-83
2021/06/10 06:27:46;;;;;;;;;4.00;3.00;;;;;21.68;42.56;101431.03;4878041;29;45718;-82
2021/06/10 06:30:13;;;;;;;;;2.75;2.00;;;;;21.63;42.57;101430.66;4879314;29;45815;-83
2021/06/10 06:32:38;;;;;;;;;4.75;3.00;;;;;21.74;42.75;101442.88;4859731;29;47076;-83
2021/06/10 06:35:06;;;;;;;;;2.50;2.50;;;;;21.76;42.82;101444.38;4877758;29;45754;-82
2021/06/10 06:37:32;;;;;;;;;5.00;3.00;;;;;21.74;42.20;101429.53;4878015;29;45510;-83
2021/06/10 06:39:58;;;;;;;;;2.25;2.00;;;;;21.73;42.28;101428.69;4878828;29;45767;-83
2021/06/10 06:42:36;;;;;;;;;4.00;3.25;;;;;21.85;42.08;101447.09;4874291;29;45976;-87
2021/06/10 06:45:03;;;;;;;;;5.50;4.00;;;;;21.96;42.06;101465.50;4863355;29;45936;-86
2021/06/10 06:47:29;;;;;;;;;3.25;3.25;;;;;21.73;42.05;101431.38;4861787;29;45717;-86
2021/06/10 06:49:54;;;;;;;;;4.00;3.75;;;;;21.56;42.00;101400.28;4881037;29;48420;-86
2021/06/10 06:52:20;;;;;;;;;4.50;3.50;;;;;21.83;41.62;101441.91;4883591;29;45633;-87
2021/06/10 06:54:45;;;;;;;;;3.00;3.00;;;;;22.01;41.48;101476.53;4886787;29;46058;-89
2021/06/10 06:57:11;;;;;;;;;4.00;3.50;;;;;21.83;41.66;101441.06;4865720;29;46166;-86
2021/06/10 06:59:36;;;;;;;;;4.25;4.25;;;;;21.70;41.22;101420.19;4864538;29;47332;-86
2021/06/10 07:02:02;;;;;;;;;4.25;3.25;;;;;22.02;40.99;101478.19;4880734;29;45875;-84
2021/06/10 07:04:28;;;;;;;;;4.50;4.00;;;;;21.77;40.95;101438.03;4872326;29;45797;-88
2021/06/10 07:06:53;;;;;;;;;3.00;3.00;;;;;21.80;40.85;101444.06;4867321;29;45874;-86
2021/06/10 07:09:19;;;;;;;;;4.75;4.00;;;;;21.70;40.93;101426.34;4867734;29;47743;-89
2021/06/10 07:11:44;;;;;;;;;4.00;3.75;;;;;21.74;40.46;101437.53;4871807;29;47184;-87
2021/06/10 07:14:10;;;;;;;;;3.25;2.50;;;;;22.04;40.83;101489.53;4869203;29;45771;-88
2021/06/10 07:16:36;;;;;;;;;3.25;3.00;;;;;22.05;40.83;101493.88;4871240;29;46160;-87
2021/06/10 07:19:02;;;;;;;;;3.00;3.00;;;;;21.65;40.55;101431.31;4868626;29;47515;-86
2021/06/10 07:21:43;;;;;;;;;3.50;2.75;;;;;21.79;40.09;101453.91;4880300;29;46651;-88
2021/06/10 07:24:09;;;;;;;;;4.25;3.50;;;;;22.05;40.26;101499.22;4870384;29;45864;-91
2021/06/10 07:26:35;;;;;;;;;4.75;4.00;;;;;21.70;40.14;101431.66;4871299;29;46052;-88
2021/06/10 07:29:00;;;;;;;;;4.00;3.00;;;;;22.08;40.07;101493.53;4864078;29;47782;-86
2021/06/10 07:31:26;;;;;;;;;4.00;3.00;;;;;21.97;39.99;101478.66;4860547;29;48148;-86
2021/06/10 07:33:51;;;;;;;;;4.25;3.00;;;;;21.83;39.96;101449.91;4864932;29;45752;-91
2021/06/10 07:36:17;;;;;;;;;3.50;3.00;;;;;22.11;39.77;101491.41;4866996;29;45782;-90
2021/06/10 07:38:44;;;;;;;;;4.00;3.00;;;;;22.12;39.41;101484.25;4881509;29;45984;-87
2021/06/10 07:41:10;;;;;;;;;3.50;2.50;;;;;22.14;39.46;101479.56;4862485;29;47221;-89
2021/06/10 07:43:36;;;;;;;;;3.00;3.00;;;;;22.06;39.59;101466.19;4858568;29;45821;-84
2021/06/10 07:46:02;;;;;;;;;5.50;4.00;;;;;22.01;39.47;101463.19;4875522;29;46115;-83
2021/06/10 07:48:29;;;;;;;;;3.25;2.00;;;;;21.79;39.52;101424.56;4865269;29;48030;-85
2021/06/10 07:50:55;;;;;;;;;3.00;2.50;;;;;22.12;39.42;101477.06;4879160;29;46072;-82
2021/06/10 07:53:20;;;;;;;;;4.25;3.75;;;;;22.21;39.50;101487.75;4876710;29;46203;-82
2021/06/10 07:55:46;;;;;;;;;3.00;2.25;;;;;22.24;39.21;101490.13;4857252;29;45715;-82
2021/06/10 07:58:11;;;;;;;;;3.00;3.00;;;;;22.22;39.29;101481.41;4876101;29;46993;-81
2021/06/10 08:00:37;;;;;;;;;2.00;2.00;;;;;22.28;39.02;101499.47;4875452;29;45897;-82
2021/06/10 08:03:03;;;;;;;;;4.00;3.00;;;;;22.28;39.00;101494.97;4864436;29;46233;-81
2021/06/10 08:05:29;;;;;;;;;2.75;2.00;;;;;22.35;38.91;101497.81;4877692;29;45567;-82
2021/06/10 08:07:55;;;;;;;;;2.50;2.00;;;;;22.25;38.82;101483.75;4885102;29;45682;-83
2021/06/10 08:10:21;;;;;;;;;5.00;4.00;;;;;22.33;38.81;101473.94;4873830;29;46453;-81
2021/06/10 08:12:47;;;;;;;;;4.75;3.00;;;;;22.43;39.03;101490.66;4875631;29;45743;-81
2021/06/10 08:15:13;;;;;;;;;4.00;4.00;;;;;22.47;38.95;101485.81;4859448;29;45834;-83
2021/06/10 08:17:39;;;;;;;;;4.00;4.00;;;;;22.47;38.77;101480.47;4875996;29;46742;-83
2021/06/10 08:20:07;;;;;;;;;3.75;3.00;;;;;22.55;39.12;101478.66;4875446;29;45820;-81
2021/06/10 08:22:32;;;;;;;;;5.00;4.00;;;;;22.46;38.85;101463.59;4874639;29;45988;-83
2021/06/10 08:24:58;;;;;;;;;3.00;3.00;;;;;22.57;38.89;101470.44;4871554;29;47079;-81
2021/06/10 08:27:24;;;;;;;;;4.00;3.50;;;;;22.68;38.66;101479.97;4874749;29;47349;-78
2021/06/10 08:29:49;;;;;;;;;4.50;4.00;;;;;22.65;38.82;101462.47;4875447;29;46341;-85
2021/06/10 08:32:15;;;;;;;;;4.00;4.00;;;;;22.63;38.85;101450.25;4858723;29;45797;-83
2021/06/10 08:34:40;;;;;;;;;4.25;4.25;;;;;22.73;38.84;101458.97;4858786;29;45941;-84
2021/06/10 08:37:06;;;;;;;;;4.50;4.00;;;;;22.80;38.95;101462.66;4873916;29;45690;-83
2021/06/10 08:39:34;;;;;;;;;2.50;2.50;;;;;22.80;38.37;101462.66;4875349;29;45624;-82
2021/06/10 08:42:00;;;;;;;;;5.00;4.00;;;;;22.90;39.01;101479.34;4872737;29;46062;-80
2021/06/10 08:44:26;;;;;;;;;5.00;4.75;;;;;22.93;38.89;101479.88;4874682;29;45764;-80
2021/06/10 08:46:53;;;;;;;;;4.00;4.00;;;;;22.95;38.89;101482.34;4860805;29;46584;-80
2021/06/10 08:49:19;;;;;;;;;6.00;4.50;;;;;22.87;38.84;101443.13;4874038;29;46028;-82
2021/06/10 08:51:45;;;;;;;;;5.00;4.00;;;;;22.98;38.39;101452.63;4873905;29;45855;-87
2021/06/10 08:54:10;;;;;;;;;3.00;3.00;;;;;23.12;38.59;101472.47;4876223;29;45693;-85
2021/06/10 08:56:37;;;;;;;;;6.00;3.00;;;;;23.13;38.66;101466.13;4876824;29;45942;-85
2021/06/10 08:59:02;;;;;;;;;5.00;4.25;;;;;23.01;38.44;101436.22;4876147;29;46399;-84
2021/06/10 09:01:30;;;;;;;;;6.00;5.00;;;;;23.19;38.60;101450.25;4858251;29;45833;-83
2021/06/10 09:03:55;;;;;;;;;5.00;5.00;;;;;23.24;38.78;101452.41;4875488;29;45824;-85
2021/06/10 09:06:21;;;;;;;;;4.25;4.25;;;;;23.33;38.91;101457.56;4859558;29;46537;-85
2021/06/10 09:08:56;;;;;;;;;4.75;4.75;;;;;23.16;38.96;101421.16;4876127;29;45878;-82
2021/06/10 09:11:25;;;;;;;;;6.25;5.00;;;;;23.40;38.77;101455.03;4880196;29;45677;-83
2021/06/10 09:13:55;;;;;;;;;4.75;4.50;;;;;23.32;39.05;101441.69;4877910;29;45867;-86
2021/06/10 09:16:22;;;;;;;;;5.00;4.75;;;;;23.52;38.96;101466.25;4860139;29;46697;-85
2021/06/10 09:19:12;;;;;;;;;6.00;6.00;;;;;23.59;38.99;101459.19;4875377;29;45636;-81
2021/06/10 09:21:46;;;;;;;;;5.00;5.00;;;;;23.58;39.03;101441.47;4875621;29;46707;-82
2021/06/10 09:24:29;;;;;;;;;6.00;6.00;;;;;23.73;38.24;101445.91;4871634;29;45759;-83
2021/06/10 09:27:09;;;;;;;;;7.50;7.25;;;;;23.78;38.12;101445.41;4874029;29;47042;-81
2021/06/10 09:29:52;;;;;;;;;7.50;6.25;;;;;23.82;38.56;101452.91;4865258;29;48012;-84
2021/06/10 09:32:19;;;;;;;;;5.25;5.00;;;;;23.88;38.53;101450.53;4877435;29;46361;-82
2021/06/10 09:34:49;;;;;;;;;7.00;5.50;;;;;23.84;38.27;101444.69;4879476;29;46119;-82
2021/06/10 09:37:24;;;;;;;;;7.00;7.00;;;;;23.90;38.34;101445.84;4875168;29;45638;-82
2021/06/10 09:39:54;;;;;;;;;7.00;6.00;;;;;24.02;38.26;101458.63;4873451;29;46147;-81
2021/06/10 09:42:46;;;;;;;;;5.25;5.25;;;;;24.07;38.15;101450.09;4861658;29;45976;-86
2021/06/10 09:45:17;;;;;;;;;6.25;6.00;;;;;24.01;37.83;101440.94;4877632;29;45675;-83
2021/06/10 09:47:47;;;;;;;;;7.25;5.25;;;;;24.15;37.17;101458.91;4863587;29;48520;-81
2021/06/10 09:50:22;;;;;;;;;5.25;5.25;;;;;24.19;37.58;101454.06;4881218;29;47108;-82
2021/06/10 09:52:53;;;;;;;;;6.00;6.00;;;;;24.17;36.57;101453.38;4883894;29;45728;-86
2021/06/10 09:55:32;;;;;;;;;8.00;6.50;;;;;24.28;36.99;101461.06;4887567;29;45864;-81
2021/06/10 09:58:13;;;;;;;;;7.50;7.25;;;;;24.35;36.51;101464.66;4884694;29;46782;-80
2021/06/10 10:01:04;;;;;;;;;7.50;6.75;;;;;24.32;36.32;101458.84;4877332;29;45729;-83
2021/06/10 10:03:42;;;;;;;;;5.50;5.50;;;;;24.39;36.34;101474.03;4876758;29;45779;-86
2021/06/10 10:06:18;;;;;;;;;5.00;4.00;;;;;24.33;36.60;101453.31;4883549;29;45638;-83
2021/06/10 10:08:45;;;;;;;;;7.00;6.50;;;;;24.31;36.47;101433.06;4882493;29;45727;-81
2021/06/10 10:11:11;;;;;;;;;4.50;4.00;;;;;24.30;36.54;101426.88;4883236;29;46051;-85
2021/06/10 10:13:38;;;;;;;;;5.50;5.50;;;;;24.45;36.12;101451.06;4882841;29;45628;-82
2021/06/10 10:16:05;;;;;;;;;5.50;5.50;;;;;24.30;36.81;101415.31;4885077;29;45949;-82
2021/06/10 10:18:31;;;;;;;;;5.25;5.25;;;;;24.61;36.14;101467.00;4872854;29;47379;-84
2021/06/10 10:21:01;;;;;;;;;5.50;4.50;;;;;24.42;36.17;101422.75;4883954;29;45871;-83
2021/06/10 10:23:26;;;;;;;;;6.75;6.00;;;;;24.59;36.06;101442.22;4882106;29;45921;-85
2021/06/10 10:25:56;;;;;;;;;8.25;7.50;;;;;24.59;36.65;101431.50;4882800;29;45525;-83
2021/06/10 10:28:22;;;;;;;;;7.00;5.75;;;;;24.68;35.68;101438.47;4880734;29;46068;-83
2021/06/10 10:30:47;;;;;;;;;6.00;5.00;;;;;24.73;36.20;101435.22;4879367;29;46842;-82
2021/06/10 10:33:19;;;;;;;;;6.50;4.50;;;;;24.83;36.47;101430.47;4860443;29;46086;-83
2021/06/10 10:35:51;;;;;;;;;7.25;7.00;;;;;24.60;36.61;101396.50;4877395;29;45735;-86
2021/06/10 10:38:20;;;;;;;;;7.75;7.25;;;;;24.97;36.13;101451.16;4861679;29;47400;-86
2021/06/10 10:40:59;;;;;;;;;5.25;5.00;;;;;24.98;36.82;101450.97;4879502;29;46005;-82
2021/06/10 10:43:25;;;;;;;;;7.75;7.00;;;;;24.86;36.53;101432.78;4862771;29;45867;-84
2021/06/10 10:46:04;;;;;;;;;7.25;6.00;;;;;24.85;36.41;101418.53;4864863;29;45759;-82
2021/06/10 10:48:32;;;;;;;;;8.00;7.00;;;;;24.95;36.93;101440.59;4883446;29;46339;-83
2021/06/10 10:50:57;;;;;;;;;7.00;7.00;;;;;25.03;36.61;101442.38;4883709;29;45524;-84
2021/06/10 10:53:26;;;;;;;;;7.50;6.50;;;;;25.02;37.16;101440.69;4882771;29;45772;-84
2021/06/10 10:56:09;;;;;;;;;9.50;9.25;;;;;25.08;36.71;101440.81;4884645;29;45659;-85
2021/06/10 10:58:35;;;;;;;;;7.75;7.75;;;;;25.07;37.19;101432.94;4887133;29;46719;-83
2021/06/10 11:01:07;;;;;;;;;8.75;7.00;;;;;25.11;37.02;101430.72;4874503;29;47238;-84
2021/06/10 11:03:43;;;;;;;;;8.75;7.75;;;;;25.06;36.99;101424.06;4873239;29;45848;-82
2021/06/10 11:06:21;;;;;;;;;7.25;7.25;;;;;25.15;37.58;101427.50;4888483;29;45701;-83
2021/06/10 11:12:00;;;;;;;;;9.25;7.00;;;;;25.23;37.63;101432.75;4886579;29;45863;-89
2021/06/10 11:14:56;;;;;;;;;7.50;7.00;;;;;25.26;37.65;101432.41;4883610;29;45586;-85
2021/06/10 11:17:29;;;;;;;;;8.00;8.00;;;;;25.23;37.54;101418.50;4882606;29;45817;-84
2021/06/10 11:20:01;;;;;;;;;8.25;8.25;;;;;25.33;37.77;101436.00;4880943;29;46762;-82
2021/06/10 11:22:37;;;;;;;;;9.25;8.00;;;;;25.27;37.79;101409.06;4880832;29;45639;-83
2021/06/10 11:25:08;;;;;;;;;9.00;8.75;;;;;25.37;38.00;101415.03;4881345;29;45642;-82
2021/06/10 11:27:48;;;;;;;;;8.50;8.25;;;;;25.29;37.99;101399.84;4881679;29;45703;-82